Time;durP1;ratioP1;P1;durP2;ratioP2;P2;SDS_P1;SDS_P2;PMS_P1;PMS_P2;Temp;Humidity;BMP_temperature;BMP_pressure;BME280_temperature;BME280_humidity;BME280_pressure;Samples;Min_cycle;Max_cycle;Signal;HPM_P1;HPM_P2
2022/06/21 00:00:18;;;;;;;9.68;4.93;;;;;;;23.66;67.37;99181.03;4428590;32;33816;-80
2022/06/21 00:02:46;;;;;;;;;;;;;;;23.87;67.47;99200.06;4446883;32;34178;-80
2022/06/21 00:05:22;;;;;;;9.88;5.87;;;;;;;22.93;71.00;99194.56;4432514;32;34246;-80
2022/06/21 00:07:50;;;;;;;10.02;5.35;;;;;;;22.33;73.56;99190.12;4448031;32;33583;-81
2022/06/21 00:10:19;;;;;;;10.90;5.18;;;;;;;22.58;72.97;99185.37;4445437;32;34434;-80
2022/06/21 00:12:47;;;;;;;13.70;5.40;;;;;;;23.09;71.05;99194.34;4448670;32;35043;-81
2022/06/21 00:15:15;;;;;;;9.20;5.55;;;;;;;22.81;71.74;99200.00;4435041;32;33416;-81
2022/06/21 00:17:46;;;;;;;10.88;5.50;;;;;;;22.35;73.94;99200.66;4443481;32;33792;-80
2022/06/21 00:20:20;;;;;;;11.12;5.70;;;;;;;22.35;74.40;99200.66;4431060;32;33917;-80
2022/06/21 00:22:49;;;;;;;12.52;5.95;;;;;;;22.86;72.08;99208.75;4446147;32;34686;-79
2022/06/21 00:25:25;;;;;;;10.68;5.90;;;;;;;22.39;74.02;99207.63;4444131;32;33537;-80
2022/06/21 00:27:55;;;;;;;12.88;5.93;;;;;;;22.54;73.94;99227.66;4449257;32;34038;-81
2022/06/21 00:30:23;;;;;;;11.65;6.35;;;;;;;22.44;73.85;99237.47;4448100;32;33839;-79
2022/06/21 00:32:52;;;;;;;10.77;6.12;;;;;;;21.64;78.21;99227.75;4445857;32;32718;-79
2022/06/21 00:35:22;;;;;;;10.48;6.22;;;;;;;21.58;79.17;99231.31;4430747;32;34399;-79
2022/06/21 00:37:50;;;;;;;10.05;5.87;;;;;;;21.76;78.26;99237.31;4447110;32;34434;-80
2022/06/21 00:40:25;;;;;;;11.80;6.12;;;;;;;21.68;78.37;99242.66;4428365;32;33705;-79
2022/06/21 00:42:59;;;;;;;8.80;5.90;;;;;;;21.74;78.15;99239.97;4431717;32;33840;-80
2022/06/21 00:45:33;;;;;;;9.18;5.70;;;;;;;21.78;77.28;99231.13;4425205;32;33337;-80
2022/06/21 00:48:11;;;;;;;11.00;5.35;;;;;;;22.02;75.35;99229.16;4441554;32;33889;-80
2022/06/21 00:50:45;;;;;;;8.65;5.22;;;;;;;21.88;75.04;99225.75;4441510;32;34387;-80
2022/06/21 00:53:35;;;;;;;14.07;5.37;;;;;;;22.08;73.40;99228.19;4424686;32;34114;-79
2022/06/21 00:56:15;;;;;;;7.93;4.50;;;;;;;21.63;74.04;99228.63;4431070;32;33591;-79
2022/06/21 00:58:43;;;;;;;7.55;4.03;;;;;;;22.12;71.87;99224.66;4428631;32;34575;-82
2022/06/21 01:01:20;;;;;;;9.23;5.03;;;;;;;22.28;70.91;99222.72;4433560;32;33876;-80
2022/06/21 01:04:12;;;;;;;8.77;4.75;;;;;;;21.82;72.06;99225.84;4426570;32;32486;-80
2022/06/21 01:06:46;;;;;;;7.93;4.30;;;;;;;21.83;72.21;99223.19;4430125;32;33628;-80
2022/06/21 01:09:17;;;;;;;8.17;3.63;;;;;;;22.41;70.08;99204.94;4428488;32;33633;-80
2022/06/21 01:11:56;;;;;;;8.10;3.83;;;;;;;22.30;70.70;99191.91;4429383;32;33847;-80
2022/06/21 01:14:24;;;;;;;7.53;4.12;;;;;;;22.45;69.09;99197.00;4436666;32;32758;-80
2022/06/21 01:16:52;;;;;;;9.23;4.03;;;;;;;21.68;72.05;99213.66;4430902;32;34445;-80
2022/06/21 01:19:41;;;;;;;9.52;4.40;;;;;;;21.72;71.50;99210.09;4441479;32;33362;-81
2022/06/21 01:22:37;;;;;;;10.73;4.25;;;;;;;21.47;72.42;99213.88;4428995;32;33715;-80
2022/06/21 01:25:04;;;;;;;;;;;;;;;21.56;70.77;99219.06;4431754;32;34145;-80
2022/06/21 01:27:32;;;;;;;11.52;3.95;;;;;;;20.92;72.66;99238.81;4442297;32;33938;-79
2022/06/21 01:30:00;;;;;;;8.85;3.80;;;;;;;21.27;71.22;99249.13;4442523;32;34585;-79
2022/06/21 01:32:27;;;;;;;7.70;3.95;;;;;;;21.13;71.57;99245.69;4430541;32;33651;-80
2022/06/21 01:34:55;;;;;;;5.87;3.72;;;;;;;21.11;71.23;99264.16;4444289;32;34629;-79
2022/06/21 01:37:26;;;;;;;8.00;4.20;;;;;;;20.93;71.26;99264.25;4446800;32;33529;-79
2022/06/21 01:40:11;;;;;;;7.57;3.90;;;;;;;20.93;70.55;99265.12;4427487;32;34911;-79
2022/06/21 01:42:43;;;;;;;9.07;3.53;;;;;;;21.18;69.70;99265.84;4432335;32;32503;-79
2022/06/21 01:45:15;;;;;;;7.18;3.75;;;;;;;21.05;69.85;99268.59;4420165;32;32698;-80
2022/06/21 01:47:50;;;;;;;7.15;3.95;;;;;;;21.23;68.88;99265.84;4445258;32;33923;-81
2022/06/21 01:50:20;;;;;;;6.53;3.62;;;;;;;21.50;67.36;99267.41;4434269;32;34783;-80
2022/06/21 01:52:50;;;;;;;10.23;4.15;;;;;;;21.40;67.23;99255.16;4435892;32;31712;-79
2022/06/21 01:55:27;;;;;;;8.95;4.03;;;;;;;21.20;67.44;99260.56;4442215;32;34860;-80
2022/06/21 01:57:56;;;;;;;6.80;4.22;;;;;;;21.05;68.37;99264.19;4445734;32;34112;-79
2022/06/21 02:00:24;;;;;;;7.28;4.18;;;;;;;21.35;67.54;99262.22;4426478;32;34120;-83
2022/06/21 02:02:55;;;;;;;10.18;4.50;;;;;;;21.16;68.03;99266.75;4444533;32;33845;-79
2022/06/21 02:05:35;;;;;;;7.35;4.65;;;;;;;20.86;69.06;99273.97;4438133;32;34298;-80
2022/06/21 02:08:07;;;;;;;12.05;4.68;;;;;;;21.33;67.64;99272.78;4433851;32;34444;-80
2022/06/21 02:10:42;;;;;;;8.77;5.60;;;;;;;21.65;65.96;99271.66;4429769;32;33855;-80
2022/06/21 02:13:18;;;;;;;8.60;5.05;;;;;;;21.01;68.11;99273.00;4443713;32;34698;-79
2022/06/21 02:15:56;;;;;;;9.63;5.43;;;;;;;21.54;66.22;99286.72;4419651;32;34674;-82
2022/06/21 02:18:25;;;;;;;8.90;5.05;;;;;;;21.60;65.60;99271.72;4432427;32;33789;-79
2022/06/21 02:21:18;;;;;;;10.02;5.70;;;;;;;21.47;66.41;99287.66;4442506;32;34020;-79
2022/06/21 02:23:52;;;;;;;9.60;4.93;;;;;;;21.04;68.28;99290.56;4442710;32;33912;-81
2022/06/21 02:26:22;;;;;;;11.35;5.57;;;;;;;21.27;67.50;99283.38;4430954;32;34576;-79
2022/06/21 02:28:49;;;;;;;8.10;5.22;;;;;;;21.01;68.60;99281.78;4429210;32;34401;-80
2022/06/21 02:31:17;;;;;;;8.02;4.97;;;;;;;21.46;66.87;99281.50;4439226;32;34030;-79
2022/06/21 02:33:46;;;;;;;7.45;4.70;;;;;;;21.54;65.98;99273.53;4418759;32;33355;-80
2022/06/21 02:36:20;;;;;;;8.38;4.55;;;;;;;20.89;66.56;99275.69;4446100;32;34205;-81
2022/06/21 02:38:54;;;;;;;8.77;4.93;;;;;;;21.24;65.33;99264.94;4438750;32;33083;-81
2022/06/21 02:41:28;;;;;;;6.22;3.90;;;;;;;20.77;66.31;99263.47;4428354;32;34283;-82
2022/06/21 02:44:19;;;;;;;6.07;3.95;;;;;;;20.79;65.25;99266.97;4429486;32;33718;-80
2022/06/21 02:46:51;;;;;;;7.65;4.25;;;;;;;21.17;63.77;99268.50;4387318;32;34081;-80
2022/06/21 02:49:31;;;;;;;6.85;3.70;;;;;;;20.95;63.22;99268.63;4428126;32;33194;-80
2022/06/21 02:52:02;;;;;;;7.07;3.70;;;;;;;20.74;64.05;99266.12;4432028;32;33361;-80
2022/06/21 02:54:47;;;;;;;6.28;3.75;;;;;;;20.83;63.51;99271.34;4430493;32;33727;-80
2022/06/21 02:57:29;;;;;;;5.97;3.53;;;;;;;20.69;63.46;99286.34;4439737;32;34726;-79
2022/06/21 02:59:57;;;;;;;6.47;3.87;;;;;;;20.58;63.78;99279.31;4427913;32;33315;-79
2022/06/21 03:02:27;;;;;;;8.32;3.90;;;;;;;20.11;66.39;99296.12;4418110;32;34615;-81
2022/06/21 03:05:00;;;;;;;7.22;3.92;;;;;;;20.42;64.83;99309.22;4438048;32;33082;-80
2022/06/21 03:07:39;;;;;;;7.62;4.32;;;;;;;20.24;65.66;99315.37;4431387;32;34410;-82
2022/06/21 03:10:15;;;;;;;6.57;4.18;;;;;;;20.18;66.24;99324.16;4434395;32;33520;-81
2022/06/21 03:12:43;;;;;;;6.40;4.22;;;;;;;19.70;68.54;99331.19;4441586;32;33649;-82
2022/06/21 03:15:11;;;;;;;8.63;4.05;;;;;;;20.04;67.10;99333.81;4451586;32;34036;-80
2022/06/21 03:17:44;;;;;;;7.05;4.57;;;;;;;19.93;67.45;99340.84;4432454;32;34841;-79
2022/06/21 03:20:16;;;;;;;7.37;4.60;;;;;;;19.97;67.31;99342.59;4427968;32;34135;-79
2022/06/21 03:22:44;;;;;;;9.10;4.70;;;;;;;19.75;68.30;99342.59;4430123;32;33787;-80
2022/06/21 03:25:28;;;;;;;7.37;4.72;;;;;;;19.65;68.95;99343.44;4446098;32;33889;-79
2022/06/21 03:27:59;;;;;;;7.03;5.07;;;;;;;19.96;68.26;99346.09;4444490;32;34811;-79
2022/06/21 03:30:33;;;;;;;8.43;4.50;;;;;;;19.45;69.30;99344.28;4428910;32;32067;-80
2022/06/21 03:33:02;;;;;;;8.00;4.33;;;;;;;19.58;69.12;99345.16;4431080;32;33904;-82
2022/06/21 03:35:33;;;;;;;7.65;4.47;;;;;;;19.73;68.11;99354.84;4428380;32;34069;-79
2022/06/21 03:38:01;;;;;;;6.93;3.60;;;;;;;19.67;67.67;99360.06;4437885;32;34105;-81
2022/06/21 03:43:22;;;;;;;7.60;3.70;;;;;;;19.42;67.79;99378.41;4446838;32;33967;-81
2022/06/21 03:45:52;;;;;;;6.70;3.35;;;;;;;19.64;65.60;99373.19;4431664;32;34008;-83
2022/06/21 03:48:59;;;;;;;7.55;3.65;;;;;;;19.75;65.14;99375.87;4427444;32;34082;-81
2022/06/21 03:51:31;;;;;;;6.57;3.03;;;;;;;19.84;64.49;99379.41;4430222;32;33558;-82
2022/06/21 03:54:24;;;;;;;6.75;2.62;;;;;;;19.34;63.34;99388.03;4432592;32;33991;-81
2022/06/21 03:56:55;;;;;;;5.87;2.10;;;;;;;18.99;63.06;99394.06;4421510;32;34572;-82
2022/06/21 03:59:32;;;;;;;4.00;2.08;;;;;;;19.44;60.62;99386.31;4439107;32;34176;-81
2022/06/21 04:02:08;;;;;;;4.35;2.08;;;;;;;19.31;59.89;99377.50;4446653;32;33665;-79
2022/06/21 04:04:56;;;;;;;3.72;1.90;;;;;;;18.59;61.32;99387.69;4417862;32;33233;-82
2022/06/21 04:07:38;;;;;;;4.90;1.80;;;;;;;19.15;60.57;99396.75;4445128;32;34655;-82
2022/06/21 04:10:27;;;;;;;5.10;1.87;;;;;;;19.24;60.36;99394.16;4445253;32;34665;-81
2022/06/21 04:12:57;;;;;;;4.15;1.73;;;;;;;19.20;60.13;99406.37;4429196;32;34160;-80
2022/06/21 04:15:32;;;;;;;4.22;1.87;;;;;;;19.34;58.83;99402.94;4441878;32;32921;-80
2022/06/21 04:18:09;;;;;;;;;;;;;;;19.67;58.73;99391.59;4428872;32;33896;-78
2022/06/21 04:20:48;;;;;;;3.67;1.70;;;;;;;19.22;58.74;99407.25;4434359;32;35213;-81
2022/06/21 04:23:25;;;;;;;4.07;1.80;;;;;;;19.21;59.31;99397.63;4443329;32;33867;-80
2022/06/21 04:26:16;;;;;;;4.05;1.80;;;;;;;19.07;59.17;99408.97;4445163;32;33846;-81
2022/06/21 04:28:55;;;;;;;3.40;1.52;;;;;;;18.74;58.15;99400.91;4428239;32;34417;-80
2022/06/21 04:31:32;;;;;;;3.03;1.70;;;;;;;18.88;56.90;99405.38;4432540;32;34144;-82
2022/06/21 04:34:06;;;;;;;2.58;0.95;;;;;;;19.08;55.66;99408.06;4447144;32;33756;-80
2022/06/21 04:36:40;;;;;;;5.93;1.30;;;;;;;19.32;54.28;99409.94;4420247;32;33427;-80
2022/06/21 04:39:09;;;;;;;2.35;1.12;;;;;;;19.27;54.15;99412.53;4430406;32;33870;-81
2022/06/21 04:41:47;;;;;;;3.40;1.55;;;;;;;18.91;53.95;99418.50;4415381;32;32734;-79
2022/06/21 04:44:37;;;;;;;2.50;1.10;;;;;;;18.54;54.79;99419.13;4428139;32;34851;-82
2022/06/21 04:47:26;;;;;;;3.67;1.50;;;;;;;19.14;53.36;99416.88;4427646;32;34280;-80
2022/06/21 04:50:25;;;;;;;3.85;1.40;;;;;;;18.62;55.44;99427.94;4425256;32;33864;-80
2022/06/21 04:53:19;;;;;;;3.65;1.55;;;;;;;19.05;54.21;99432.56;4396877;32;33876;-82
2022/06/21 04:56:12;;;;;;;2.58;1.45;;;;;;;18.82;54.84;99435.09;4439602;32;33369;-82
2022/06/21 04:58:40;;;;;;;3.17;1.35;;;;;;;18.69;54.73;99430.59;4444360;32;34663;-79
2022/06/21 05:03:57;;;;;;;4.65;1.40;;;;;;;18.66;55.67;99424.47;4431736;32;34908;-81
2022/06/21 05:06:25;;;;;;;5.30;1.50;;;;;;;19.10;53.88;99419.47;4432592;32;34105;-80
2022/06/21 05:08:53;;;;;;;4.05;1.20;;;;;;;19.14;54.08;99424.75;4451378;32;33896;-80
2022/06/21 05:11:22;;;;;;;3.87;1.42;;;;;;;19.20;54.16;99427.41;4449976;32;34082;-81
2022/06/21 05:13:53;;;;;;;3.55;1.27;;;;;;;18.91;55.17;99434.25;4431442;32;34831;-78
2022/06/21 05:16:26;;;;;;;3.40;1.40;;;;;;;19.43;53.18;99445.84;4431644;32;33579;-80
2022/06/21 05:19:25;;;;;;;3.45;1.40;;;;;;;18.41;55.44;99438.28;4440579;32;34449;-82
2022/06/21 05:22:04;;;;;;;3.78;1.58;;;;;;;18.79;54.95;99441.12;4434173;32;33818;-82
2022/06/21 05:24:32;;;;;;;4.55;1.30;;;;;;;19.49;53.03;99445.00;4440285;32;34637;-79
2022/06/21 05:27:06;;;;;;;3.62;1.20;;;;;;;18.81;54.43;99446.44;4443597;32;33660;-82
2022/06/21 05:29:52;;;;;;;2.92;1.23;;;;;;;19.27;53.51;99444.03;4434467;32;33581;-81
2022/06/21 05:32:24;;;;;;;2.67;1.08;;;;;;;19.16;53.11;99445.72;4429678;32;34590;-81
2022/06/21 05:34:55;;;;;;;4.12;1.17;;;;;;;19.53;51.05;99443.22;4431132;32;34910;-83
2022/06/21 05:37:30;;;;;;;2.05;1.00;;;;;;;19.66;51.76;99452.91;4429862;32;33473;-82
2022/06/21 05:40:00;;;;;;;3.92;1.30;;;;;;;19.55;51.79;99444.16;4430664;32;33919;-82
2022/06/21 05:42:31;;;;;;;2.53;1.00;;;;;;;19.12;51.50;99463.22;4430649;32;33820;-80
2022/06/21 05:45:14;;;;;;;2.97;1.02;;;;;;;19.59;50.19;99462.53;4418457;32;32594;-81
2022/06/21 05:47:58;;;;;;;2.95;1.30;;;;;;;19.46;50.88;99460.75;4446048;32;33665;-80
2022/06/21 05:50:32;;;;;;;3.75;0.98;;;;;;;18.93;51.08;99466.63;4425741;32;33785;-79
2022/06/21 05:53:12;;;;;;;1.45;0.70;;;;;;;19.40;47.91;99461.59;4416380;32;32527;-79
2022/06/21 05:55:46;;;;;;;3.37;1.15;;;;;;;19.45;47.66;99470.38;4431915;32;34946;-80
2022/06/21 05:58:28;;;;;;;2.12;1.00;;;;;;;18.88;50.39;99477.09;4445793;32;34401;-79
2022/06/21 06:00:56;;;;;;;2.35;0.80;;;;;;;19.00;50.97;99471.91;4425812;32;34711;-79
2022/06/21 06:03:29;;;;;;;4.22;1.25;;;;;;;19.27;51.15;99480.78;4443117;32;33953;-80
2022/06/21 06:05:57;;;;;;;1.87;1.05;;;;;;;19.69;50.83;99494.97;4434408;32;33938;-79
2022/06/21 06:08:28;;;;;;;2.03;0.95;;;;;;;19.33;49.97;99488.69;4424984;32;33712;-80
2022/06/21 06:10:56;;;;;;;2.00;1.02;;;;;;;19.71;49.91;99485.34;4443563;32;33559;-79
2022/06/21 06:13:29;;;;;;;2.35;1.00;;;;;;;19.71;48.89;99492.34;4421742;32;31879;-79
2022/06/21 06:16:00;;;;;;;6.85;1.08;;;;;;;19.80;47.59;99477.50;4428016;32;34374;-79
2022/06/21 06:18:40;;;;;;;2.97;0.80;;;;;;;19.87;43.94;99482.78;4432373;32;33727;-80
2022/06/21 06:21:16;;;;;;;3.28;0.90;;;;;;;19.73;47.39;99490.63;4443331;32;33695;-81
2022/06/21 06:23:49;;;;;;;2.60;1.00;;;;;;;19.99;46.35;99493.31;4440528;32;32555;-78
2022/06/21 06:26:24;;;;;;;1.67;0.80;;;;;;;19.62;47.60;99498.44;4442251;32;34056;-80
2022/06/21 06:29:10;;;;;;;3.00;0.90;;;;;;;19.98;44.83;99496.81;4445649;32;31778;-80
2022/06/21 06:32:04;;;;;;;4.70;1.00;;;;;;;20.30;45.47;99494.22;4429261;32;34637;-77
2022/06/21 06:34:35;;;;;;;1.92;0.90;;;;;;;20.27;44.48;99503.88;4444108;32;33940;-79
2022/06/21 06:37:06;;;;;;;1.62;0.80;;;;;;;20.06;44.78;99505.59;4432074;32;35770;-79
2022/06/21 06:39:36;;;;;;;3.55;0.93;;;;;;;20.31;42.84;99487.22;4436019;32;31780;-80
2022/06/21 06:42:07;;;;;;;2.15;0.80;;;;;;;19.48;44.30;99500.16;4428466;32;31915;-78
2022/06/21 06:44:39;;;;;;;2.17;1.08;;;;;;;19.92;44.35;99507.34;4428546;32;33731;-77
2022/06/21 06:47:13;;;;;;;3.72;1.40;;;;;;;19.99;44.07;99517.84;4427077;32;33504;-78
2022/06/21 06:49:50;;;;;;;1.85;0.90;;;;;;;20.07;44.16;99511.72;4441658;32;34247;-79
2022/06/21 06:52:23;;;;;;;1.67;1.10;;;;;;;19.50;43.80;99506.28;4442869;32;34043;-79
2022/06/21 06:55:08;;;;;;;2.05;0.95;;;;;;;19.78;43.61;99500.28;4429638;32;34090;-78
2022/06/21 06:57:43;;;;;;;4.47;0.77;;;;;;;20.11;43.30;99517.00;4431202;32;34241;-79
2022/06/21 07:00:11;;;;;;;3.17;1.00;;;;;;;20.03;44.35;99508.22;4441881;32;33601;-81
2022/06/21 07:02:45;;;;;;;7.35;1.33;;;;;;;20.50;43.47;99517.91;4435449;32;34262;-78
2022/06/21 07:05:19;;;;;;;2.20;0.90;;;;;;;20.42;43.76;99517.03;4426612;32;33946;-77
2022/06/21 07:07:52;;;;;;;2.83;1.20;;;;;;;20.48;44.51;99519.66;4433977;32;34957;-80
2022/06/21 07:10:24;;;;;;;4.45;1.10;;;;;;;20.84;44.35;99507.34;4448290;32;32238;-78
2022/06/21 07:12:53;;;;;;;1.95;0.80;;;;;;;20.85;42.94;99522.28;4416104;32;34423;-77
2022/06/21 07:15:31;;;;;;;4.25;1.52;;;;;;;20.72;43.64;99517.91;4437584;32;32306;-77
2022/06/21 07:17:59;;;;;;;3.35;1.12;;;;;;;20.15;45.96;99521.37;4427609;32;34276;-81
2022/06/21 07:20:39;;;;;;;4.50;1.00;;;;;;;20.86;43.88;99523.16;4443663;32;33659;-81
2022/06/21 07:23:19;;;;;;;3.08;1.08;;;;;;;20.66;41.24;99502.12;4427631;32;33914;-79
2022/06/21 07:25:51;;;;;;;3.92;1.20;;;;;;;20.60;42.92;99524.94;4430528;32;33506;-81
2022/06/21 07:28:41;;;;;;;2.22;0.80;;;;;;;20.91;41.00;99532.81;4430567;32;34707;-78
2022/06/21 07:31:37;;;;;;;1.77;0.68;;;;;;;20.03;40.42;99527.50;4431183;32;33940;-79
2022/06/21 07:34:12;;;;;;;3.58;0.90;;;;;;;20.74;38.20;99529.31;4433881;32;33621;-79
2022/06/21 07:36:51;;;;;;;3.80;0.90;;;;;;;20.57;38.58;99540.72;4451282;32;33828;-80
2022/06/21 07:39:23;;;;;;;2.15;0.80;;;;;;;20.73;38.26;99557.41;4431024;32;34163;-80
2022/06/21 07:41:57;;;;;;;2.15;0.73;;;;;;;20.92;38.23;99547.75;4428638;32;33241;-78
2022/06/21 07:44:40;;;;;;;1.92;0.82;;;;;;;21.14;37.69;99552.97;4436529;32;33819;-78
2022/06/21 07:47:22;;;;;;;1.40;0.77;;;;;;;21.28;38.34;99558.19;4428729;32;34574;-81
2022/06/21 07:50:03;;;;;;;3.80;0.85;;;;;;;21.75;37.63;99555.44;4442418;32;33912;-80
2022/06/21 07:52:35;;;;;;;3.12;1.23;;;;;;;21.93;37.04;99540.41;4434298;32;33371;-80
2022/06/21 07:55:11;;;;;;;3.20;0.90;;;;;;;21.70;35.97;99546.66;4433797;32;34225;-76
2022/06/21 07:57:43;;;;;;;4.62;1.20;;;;;;;21.54;35.39;99548.47;4432565;32;34556;-78
2022/06/21 08:00:20;;;;;;;2.53;1.10;;;;;;;21.34;35.77;99548.53;4416077;32;34054;-78
2022/06/21 08:08:45;;;;;;;2.50;1.23;;;;;;;21.62;36.74;99540.56;4434203;32;33675;-80
2022/06/21 08:11:19;;;;;;;1.42;0.60;;;;;;;21.83;37.01;99543.94;4445379;32;33917;-78
2022/06/21 08:13:47;;;;;;;4.20;0.80;;;;;;;21.92;35.79;99544.81;4439122;32;34038;-79
2022/06/21 08:16:20;;;;;;;3.28;0.90;;;;;;;21.83;36.29;99541.31;4444457;32;34444;-80
2022/06/21 08:18:53;;;;;;;5.70;1.00;;;;;;;22.08;36.13;99540.31;4428843;32;34657;-77
2022/06/21 08:21:29;;;;;;;8.38;1.05;;;;;;;22.48;35.88;99545.31;4431107;32;33888;-77
2022/06/21 08:24:05;;;;;;;3.92;0.90;;;;;;;22.11;34.46;99539.41;4442669;32;34159;-79
2022/06/21 08:26:37;;;;;;;3.78;0.70;;;;;;;22.23;34.38;99543.72;4429561;32;34632;-78
2022/06/21 08:29:10;;;;;;;1.77;1.10;;;;;;;21.85;33.18;99553.63;4442882;32;34653;-77
2022/06/21 08:31:40;;;;;;;4.62;0.95;;;;;;;22.26;32.74;99543.75;4433848;32;34845;-77
2022/06/21 08:34:11;;;;;;;4.22;0.93;;;;;;;22.16;33.04;99546.41;4432566;32;33646;-79
2022/06/21 08:36:43;;;;;;;4.57;0.88;;;;;;;22.51;33.90;99550.59;4426022;32;33524;-77
2022/06/21 08:39:30;;;;;;;2.78;1.00;;;;;;;22.53;33.73;99561.13;4433813;32;33460;-81
2022/06/21 08:42:35;;;;;;;3.62;1.20;;;;;;;22.42;34.90;99560.34;4435030;32;34085;-77
2022/06/21 08:45:42;;;;;;;5.97;1.02;;;;;;;22.65;34.49;99539.91;4431255;32;33513;-79
2022/06/21 08:48:16;;;;;;;2.45;0.85;;;;;;;22.07;35.39;99559.66;4431745;32;33612;-78
2022/06/21 08:50:56;;;;;;;3.00;1.12;;;;;;;22.86;32.08;99549.41;4442221;32;33893;-80
2022/06/21 08:53:26;;;;;;;4.40;0.73;;;;;;;23.01;31.23;99563.38;4432821;32;34852;-78
2022/06/21 08:55:54;;;;;;;2.30;0.98;;;;;;;23.31;30.46;99554.25;4444052;32;33467;-80
2022/06/21 08:58:37;;;;;;;4.75;0.85;;;;;;;23.25;30.48;99560.50;4448171;32;34372;-80
2022/06/21 09:01:15;;;;;;;4.55;0.98;;;;;;;22.90;30.36;99553.75;4440649;32;33692;-80
2022/06/21 09:03:58;;;;;;;2.53;0.90;;;;;;;23.07;31.54;99540.44;4445851;32;34076;-81
2022/06/21 09:06:32;;;;;;;3.03;0.80;;;;;;;23.23;31.16;99542.91;4428526;32;33455;-80
2022/06/21 09:09:29;;;;;;;3.75;1.20;;;;;;;23.29;31.31;99541.06;4433064;32;34678;-76
2022/06/21 09:12:11;;;;;;;4.15;0.95;;;;;;;23.25;32.15;99552.56;4446180;32;34747;-77
2022/06/21 09:14:44;;;;;;;5.55;0.98;;;;;;;23.04;32.72;99542.22;4441722;32;34169;-78
2022/06/21 09:17:28;;;;;;;7.28;1.23;;;;;;;23.33;32.38;99558.66;4444474;32;33640;-77
2022/06/21 09:20:20;;;;;;;3.12;0.70;;;;;;;22.88;30.72;99538.84;4432747;32;33829;-78
2022/06/21 09:23:33;;;;;;;5.35;1.00;;;;;;;22.97;30.58;99547.53;4445420;32;33978;-81
2022/06/21 09:26:28;;;;;;;6.10;1.17;;;;;;;23.32;31.62;99556.03;4426077;32;33792;-79
2022/06/21 09:29:19;;;;;;;3.08;0.90;;;;;;;23.49;31.29;99558.50;4427165;32;33795;-81
2022/06/21 09:31:56;;;;;;;3.85;0.82;;;;;;;23.38;31.33;99558.59;4425904;32;33733;-78
2022/06/21 09:34:34;;;;;;;2.47;0.80;;;;;;;23.67;32.28;99566.19;4440748;32;34707;-79
2022/06/21 09:37:24;;;;;;;4.65;0.88;;;;;;;23.69;31.80;99556.47;4428741;32;34050;-78
2022/06/21 09:40:04;;;;;;;1.90;0.70;;;;;;;24.09;31.26;99560.38;4441194;32;34455;-79
2022/06/21 09:43:05;;;;;;;2.78;0.90;;;;;;;23.84;31.17;99563.34;4439968;32;34421;-82
2022/06/21 09:45:37;;;;;;;1.52;0.70;;;;;;;24.19;30.69;99561.13;4440523;32;34465;-81
2022/06/21 09:48:35;;;;;;;3.33;1.02;;;;;;;24.58;29.75;99551.72;4431732;32;34113;-80
2022/06/21 09:51:44;;;;;;;3.90;0.82;;;;;;;24.37;30.82;99560.81;4440263;32;33586;-80
2022/06/21 09:54:33;;;;;;;2.92;0.90;;;;;;;24.58;29.75;99559.66;4420104;32;32684;-80
2022/06/21 09:57:36;;;;;;;1.55;0.73;;;;;;;24.04;30.64;99578.09;4395199;32;34580;-80
2022/06/21 10:00:07;;;;;;;4.60;1.10;;;;;;;24.36;31.40;99567.03;4395219;32;34737;-81
2022/06/21 10:02:44;;;;;;;;;;;;;;;24.45;28.26;99566.87;4442709;32;33629;-77
2022/06/21 10:05:28;;;;;;;4.90;1.10;;;;;;;24.05;29.12;99569.22;4441029;32;34129;-77
2022/06/21 10:08:14;;;;;;;5.03;0.80;;;;;;;23.86;29.43;99560.69;4444155;32;32526;-78
2022/06/21 10:10:58;;;;;;;6.97;0.70;;;;;;;23.99;29.05;99570.22;4432157;32;32578;-78
2022/06/21 10:13:31;;;;;;;3.15;0.90;;;;;;;24.31;28.48;99564.44;4444817;32;32970;-78
2022/06/21 10:16:34;;;;;;;2.30;0.90;;;;;;;24.21;29.17;99561.97;4443587;32;34672;-77
2022/06/21 10:19:42;;;;;;;3.17;0.80;;;;;;;24.81;29.66;99550.47;4423642;32;33515;-78
2022/06/21 10:22:24;;;;;;;2.35;0.90;;;;;;;24.74;29.61;99554.97;4445763;32;33885;-79
2022/06/21 10:24:55;;;;;;;5.00;1.02;;;;;;;24.33;31.65;99559.13;4442997;32;34469;-79
2022/06/21 10:27:36;;;;;;;1.98;0.73;;;;;;;24.25;31.24;99555.75;4444210;32;33885;-78
2022/06/21 10:30:04;;;;;;;4.70;1.00;;;;;;;24.85;31.07;99563.59;4430003;32;33320;-79
2022/06/21 10:33:02;;;;;;;2.60;1.00;;;;;;;24.68;29.72;99555.06;4451980;32;33741;-78
2022/06/21 10:36:02;;;;;;;2.20;0.80;;;;;;;23.92;31.12;99557.97;4442099;32;34024;-78
2022/06/21 10:39:09;;;;;;;4.05;1.08;;;;;;;24.59;31.15;99568.47;4445697;32;34260;-78
2022/06/21 10:45:13;;;;;;;2.30;0.60;;;;;;;24.90;29.15;99553.81;4451007;32;34288;-78
2022/06/21 10:47:56;;;;;;;5.30;0.82;;;;;;;25.11;28.25;99559.59;4433348;32;33321;-79
2022/06/21 10:50:30;;;;;;;3.67;0.80;;;;;;;25.58;27.02;99557.88;4443872;32;33979;-80
2022/06/21 10:53:14;;;;;;;2.28;0.73;;;;;;;25.27;27.22;99554.94;4436522;32;33582;-79
2022/06/21 10:55:51;;;;;;;4.80;0.90;;;;;;;25.47;27.13;99565.16;4440931;32;34153;-80
2022/06/21 10:58:43;;;;;;;1.52;0.65;;;;;;;25.49;28.63;99566.00;4433229;32;32979;-80
2022/06/21 11:01:26;;;;;;;3.30;0.90;;;;;;;25.48;27.79;99572.22;4429079;32;33802;-78
2022/06/21 11:04:21;;;;;;;2.70;0.85;;;;;;;25.18;27.62;99558.59;4417208;32;33926;-80
2022/06/21 11:06:51;;;;;;;;;;;;;;;25.58;27.59;99579.06;4446160;32;34948;-79
2022/06/21 11:09:26;;;;;;;2.33;0.88;;;;;;;25.39;26.56;99569.75;4445987;32;33631;-80
2022/06/21 11:15:13;;;;;;;3.33;0.90;;;;;;;25.83;27.89;99562.66;4418168;32;33934;-80
2022/06/21 11:17:57;;;;;;;4.78;1.25;;;;;;;26.21;27.47;99555.62;4427981;32;33393;-78
2022/06/21 11:20:33;;;;;;;5.40;0.90;;;;;;;25.87;27.93;99569.66;4451628;32;33556;-78
2022/06/21 11:23:24;;;;;;;2.78;0.85;;;;;;;25.41;27.95;99579.41;4429393;32;34433;-79
2022/06/21 11:26:05;;;;;;;4.93;1.10;;;;;;;25.24;28.27;99569.13;4413537;32;34737;-78
2022/06/21 11:28:59;;;;;;;3.75;0.80;;;;;;;25.44;28.18;99562.56;4428122;32;33895;-77
2022/06/21 11:31:47;;;;;;;1.62;0.90;;;;;;;25.19;29.70;99568.31;4446633;32;33933;-78
2022/06/21 11:34:25;;;;;;;4.47;0.90;;;;;;;25.23;30.38;99567.37;4424901;32;34628;-77
2022/06/21 11:37:12;;;;;;;2.83;0.70;;;;;;;25.92;29.26;99570.44;4448839;32;33951;-76
2022/06/21 11:39:53;;;;;;;1.80;0.70;;;;;;;25.54;26.10;99566.78;4444339;32;33763;-78
2022/06/21 11:42:31;;;;;;;1.58;0.68;;;;;;;25.69;26.07;99569.13;4429801;32;33492;-80
2022/06/21 11:45:02;;;;;;;2.60;0.73;;;;;;;25.66;26.19;99573.63;4431161;32;33973;-77
2022/06/21 11:48:01;;;;;;;1.92;0.70;;;;;;;25.23;26.09;99575.34;4429007;32;33728;-77
2022/06/21 11:50:58;;;;;;;4.03;0.80;;;;;;;25.20;27.43;99575.34;4445758;32;34836;-75
2022/06/21 11:53:41;;;;;;;1.30;0.68;;;;;;;25.37;28.60;99576.84;4445476;32;33596;-77
2022/06/21 11:56:22;;;;;;;2.90;0.80;;;;;;;25.38;29.46;99567.97;4435398;32;237659;-79
2022/06/21 11:59:09;;;;;;;1.60;0.50;;;;;;;25.81;27.12;99583.91;4430711;32;33922;-77
2022/06/21 12:02:10;;;;;;;2.95;0.70;;;;;;;25.51;27.00;99582.75;4429687;32;33705;-77
2022/06/21 12:04:45;;;;;;;1.95;0.50;;;;;;;24.80;25.77;99576.09;4444257;32;34394;-77
2022/06/21 12:07:39;;;;;;;2.20;0.60;;;;;;;25.07;24.96;99569.41;4447767;32;34753;-78
2022/06/21 12:10:10;;;;;;;3.90;0.80;;;;;;;25.60;26.15;99574.63;4427676;32;33032;-76
2022/06/21 12:12:49;;;;;;;1.40;0.60;;;;;;;25.18;26.17;99561.25;4438228;32;33231;-79
2022/06/21 12:15:55;;;;;;;3.65;0.95;;;;;;;25.53;26.95;99562.38;4427845;32;33813;-78
2022/06/21 12:18:26;;;;;;;3.33;0.62;;;;;;;25.02;27.53;99565.97;4436270;32;32462;-75
2022/06/21 12:21:16;;;;;;;2.37;0.90;;;;;;;25.47;28.28;99559.84;4427784;32;33289;-77
2022/06/21 12:23:54;;;;;;;3.05;0.70;;;;;;;25.31;28.44;99556.63;4432708;32;34090;-77
2022/06/21 12:26:27;;;;;;;3.92;0.90;;;;;;;25.38;27.08;99554.72;4431991;32;33550;-77
2022/06/21 12:28:56;;;;;;;3.50;0.80;;;;;;;24.96;27.18;99560.78;4431149;32;33738;-78
2022/06/21 12:31:30;;;;;;;2.37;0.90;;;;;;;25.38;27.42;99557.38;4440397;32;33605;-78
2022/06/21 12:34:04;;;;;;;3.40;1.15;;;;;;;24.60;28.60;99552.56;4430318;32;33891;-78
2022/06/21 12:36:52;;;;;;;1.92;0.85;;;;;;;24.96;27.57;99547.53;4428623;32;33613;-78
2022/06/21 12:39:26;;;;;;;2.55;0.88;;;;;;;25.32;27.23;99558.37;4430338;32;33902;-78
2022/06/21 12:42:08;;;;;;;3.50;0.90;;;;;;;25.14;27.54;99542.78;4445226;32;33647;-78